sensor_id;sensor_type;location;lat;lon;timestamp;P1;durP1;ratioP1;P2;durP2;ratioP2
25913;SDS011;13718;50.922;5.346;2022-12-26T00:01:45;18.88;;;6.90;;
25913;SDS011;13718;50.922;5.346;2022-12-26T00:04:14;21.08;;;7.10;;
25913;SDS011;13718;50.922;5.346;2022-12-26T00:06:41;25.35;;;6.50;;
25913;SDS011;13718;50.922;5.346;2022-12-26T00:09:07;30.75;;;6.97;;
25913;SDS011;13718;50.922;5.346;2022-12-26T00:11:33;20.10;;;6.63;;
25913;SDS011;13718;50.922;5.346;2022-12-26T00:14:00;23.90;;;7.28;;
25913;SDS011;13718;50.922;5.346;2022-12-26T00:16:29;18.00;;;6.60;;
25913;SDS011;13718;50.922;5.346;2022-12-26T00:18:55;20.65;;;6.55;;
25913;SDS011;13718;50.922;5.346;2022-12-26T00:21:21;20.13;;;6.47;;
25913;SDS011;13718;50.922;5.346;2022-12-26T00:23:48;23.27;;;6.75;;
25913;SDS011;13718;50.922;5.346;2022-12-26T00:26:17;22.80;;;6.63;;
25913;SDS011;13718;50.922;5.346;2022-12-26T00:28:44;19.02;;;6.43;;
25913;SDS011;13718;50.922;5.346;2022-12-26T00:31:12;23.33;;;5.75;;
25913;SDS011;13718;50.922;5.346;2022-12-26T00:33:39;19.05;;;6.00;;
25913;SDS011;13718;50.922;5.346;2022-12-26T00:36:12;17.63;;;6.13;;
25913;SDS011;13718;50.922;5.346;2022-12-26T00:38:40;19.60;;;5.75;;
25913;SDS011;13718;50.922;5.346;2022-12-26T00:41:06;16.52;;;6.30;;
25913;SDS011;13718;50.922;5.346;2022-12-26T00:43:34;17.58;;;6.32;;
25913;SDS011;13718;50.922;5.346;2022-12-26T00:46:00;20.08;;;6.32;;
25913;SDS011;13718;50.922;5.346;2022-12-26T00:48:25;17.75;;;6.63;;
25913;SDS011;13718;50.922;5.346;2022-12-26T00:50:51;17.63;;;5.95;;
25913;SDS011;13718;50.922;5.346;2022-12-26T00:53:17;18.63;;;6.35;;
25913;SDS011;13718;50.922;5.346;2022-12-26T00:55:44;17.65;;;6.30;;
25913;SDS011;13718;50.922;5.346;2022-12-26T00:58:10;21.17;;;6.68;;
25913;SDS011;13718;50.922;5.346;2022-12-26T01:00:36;22.02;;;6.70;;
25913;SDS011;13718;50.922;5.346;2022-12-26T01:03:02;17.08;;;6.50;;
25913;SDS011;13718;50.922;5.346;2022-12-26T01:05:27;16.23;;;6.18;;
25913;SDS011;13718;50.922;5.346;2022-12-26T01:07:53;19.38;;;7.22;;
25913;SDS011;13718;50.922;5.346;2022-12-26T01:10:19;19.98;;;6.82;;
25913;SDS011;13718;50.922;5.346;2022-12-26T01:12:45;18.67;;;6.63;;
25913;SDS011;13718;50.922;5.346;2022-12-26T01:15:10;16.73;;;5.90;;
25913;SDS011;13718;50.922;5.346;2022-12-26T01:17:36;21.50;;;5.80;;
25913;SDS011;13718;50.922;5.346;2022-12-26T01:20:02;16.23;;;6.80;;
25913;SDS011;13718;50.922;5.346;2022-12-26T01:22:28;18.08;;;6.05;;
25913;SDS011;13718;50.922;5.346;2022-12-26T01:24:54;20.02;;;6.30;;
25913;SDS011;13718;50.922;5.346;2022-12-26T01:27:23;22.70;;;7.20;;
25913;SDS011;13718;50.922;5.346;2022-12-26T01:29:49;19.05;;;6.43;;
25913;SDS011;13718;50.922;5.346;2022-12-26T01:32:17;16.13;;;6.68;;
25913;SDS011;13718;50.922;5.346;2022-12-26T01:34:43;16.33;;;7.05;;
25913;SDS011;13718;50.922;5.346;2022-12-26T01:37:10;16.35;;;6.57;;
25913;SDS011;13718;50.922;5.346;2022-12-26T01:39:37;19.55;;;6.65;;
25913;SDS011;13718;50.922;5.346;2022-12-26T01:42:07;18.20;;;6.55;;
25913;SDS011;13718;50.922;5.346;2022-12-26T01:44:54;21.30;;;6.90;;
25913;SDS011;13718;50.922;5.346;2022-12-26T01:47:41;22.95;;;7.63;;
25913;SDS011;13718;50.922;5.346;2022-12-26T01:50:25;22.52;;;7.60;;
25913;SDS011;13718;50.922;5.346;2022-12-26T01:55:22;20.88;;;8.35;;
25913;SDS011;13718;50.922;5.346;2022-12-26T01:57:49;28.10;;;8.43;;
25913;SDS011;13718;50.922;5.346;2022-12-26T02:00:22;26.83;;;8.85;;
25913;SDS011;13718;50.922;5.346;2022-12-26T02:02:48;25.58;;;8.38;;
25913;SDS011;13718;50.922;5.346;2022-12-26T02:05:33;24.75;;;8.32;;
25913;SDS011;13718;50.922;5.346;2022-12-26T02:08:08;27.98;;;9.20;;
25913;SDS011;13718;50.922;5.346;2022-12-26T02:10:49;22.50;;;8.77;;
25913;SDS011;13718;50.922;5.346;2022-12-26T02:13:19;30.15;;;9.27;;
25913;SDS011;13718;50.922;5.346;2022-12-26T02:15:45;26.90;;;9.27;;
25913;SDS011;13718;50.922;5.346;2022-12-26T02:18:11;27.80;;;9.65;;
25913;SDS011;13718;50.922;5.346;2022-12-26T02:20:41;25.38;;;8.98;;
25913;SDS011;13718;50.922;5.346;2022-12-26T02:23:20;29.13;;;9.63;;
25913;SDS011;13718;50.922;5.346;2022-12-26T02:34:14;24.95;;;8.45;;
25913;SDS011;13718;50.922;5.346;2022-12-26T02:45:02;27.10;;;8.23;;
25913;SDS011;13718;50.922;5.346;2022-12-26T02:53:51;22.10;;;7.82;;
25913;SDS011;13718;50.922;5.346;2022-12-26T02:56:48;17.52;;;6.97;;
25913;SDS011;13718;50.922;5.346;2022-12-26T02:59:58;16.60;;;6.68;;
25913;SDS011;13718;50.922;5.346;2022-12-26T03:08:37;23.20;;;7.57;;
25913;SDS011;13718;50.922;5.346;2022-12-26T03:11:31;26.65;;;8.30;;
25913;SDS011;13718;50.922;5.346;2022-12-26T03:14:23;19.42;;;7.38;;
25913;SDS011;13718;50.922;5.346;2022-12-26T03:17:23;20.55;;;7.95;;
25913;SDS011;13718;50.922;5.346;2022-12-26T03:19:57;18.27;;;7.65;;
25913;SDS011;13718;50.922;5.346;2022-12-26T03:22:42;22.77;;;8.13;;
25913;SDS011;13718;50.922;5.346;2022-12-26T03:25:18;20.58;;;7.93;;
25913;SDS011;13718;50.922;5.346;2022-12-26T03:28:12;20.92;;;7.55;;
25913;SDS011;13718;50.922;5.346;2022-12-26T03:30:39;18.40;;;7.40;;
25913;SDS011;13718;50.922;5.346;2022-12-26T03:33:17;19.02;;;7.00;;
25913;SDS011;13718;50.922;5.346;2022-12-26T03:36:30;16.98;;;6.22;;
25913;SDS011;13718;50.922;5.346;2022-12-26T03:42:22;18.17;;;6.65;;
25913;SDS011;13718;50.922;5.346;2022-12-26T03:45:32;15.70;;;6.07;;
25913;SDS011;13718;50.922;5.346;2022-12-26T03:48:40;24.70;;;6.18;;
25913;SDS011;13718;50.922;5.346;2022-12-26T03:54:37;17.80;;;6.45;;
25913;SDS011;13718;50.922;5.346;2022-12-26T03:58:05;15.95;;;6.18;;
25913;SDS011;13718;50.922;5.346;2022-12-26T04:00:46;16.10;;;6.13;;
25913;SDS011;13718;50.922;5.346;2022-12-26T04:03:33;18.67;;;6.93;;
25913;SDS011;13718;50.922;5.346;2022-12-26T04:06:23;15.65;;;5.95;;
25913;SDS011;13718;50.922;5.346;2022-12-26T04:09:12;17.70;;;6.65;;
25913;SDS011;13718;50.922;5.346;2022-12-26T04:12:00;14.98;;;6.45;;
25913;SDS011;13718;50.922;5.346;2022-12-26T04:14:52;16.13;;;6.40;;
25913;SDS011;13718;50.922;5.346;2022-12-26T04:17:56;14.95;;;5.88;;
25913;SDS011;13718;50.922;5.346;2022-12-26T04:21:08;15.82;;;6.75;;
25913;SDS011;13718;50.922;5.346;2022-12-26T04:24:01;16.88;;;6.18;;
25913;SDS011;13718;50.922;5.346;2022-12-26T04:26:52;19.45;;;6.90;;
25913;SDS011;13718;50.922;5.346;2022-12-26T04:29:39;19.73;;;6.80;;
25913;SDS011;13718;50.922;5.346;2022-12-26T04:32:42;16.80;;;6.57;;
25913;SDS011;13718;50.922;5.346;2022-12-26T04:35:35;15.73;;;5.38;;
25913;SDS011;13718;50.922;5.346;2022-12-26T04:38:29;13.95;;;6.20;;
25913;SDS011;13718;50.922;5.346;2022-12-26T04:41:16;27.05;;;6.10;;
25913;SDS011;13718;50.922;5.346;2022-12-26T04:44:02;16.85;;;5.72;;
25913;SDS011;13718;50.922;5.346;2022-12-26T04:46:35;14.60;;;5.53;;
25913;SDS011;13718;50.922;5.346;2022-12-26T04:49:05;16.83;;;5.95;;
25913;SDS011;13718;50.922;5.346;2022-12-26T04:51:51;17.75;;;5.03;;
25913;SDS011;13718;50.922;5.346;2022-12-26T04:54:17;14.65;;;5.28;;
25913;SDS011;13718;50.922;5.346;2022-12-26T04:56:43;17.08;;;5.18;;
25913;SDS011;13718;50.922;5.346;2022-12-26T04:59:08;16.35;;;5.35;;
25913;SDS011;13718;50.922;5.346;2022-12-26T05:01:34;23.17;;;5.65;;
25913;SDS011;13718;50.922;5.346;2022-12-26T05:04:18;18.00;;;4.90;;
25913;SDS011;13718;50.922;5.346;2022-12-26T05:07:03;11.68;;;4.05;;
25913;SDS011;13718;50.922;5.346;2022-12-26T05:09:52;11.15;;;4.00;;
25913;SDS011;13718;50.922;5.346;2022-12-26T05:12:18;12.98;;;3.75;;
25913;SDS011;13718;50.922;5.346;2022-12-26T05:14:44;13.00;;;3.58;;
25913;SDS011;13718;50.922;5.346;2022-12-26T05:17:10;11.27;;;3.58;;
25913;SDS011;13718;50.922;5.346;2022-12-26T05:19:56;16.27;;;3.58;;
25913;SDS011;13718;50.922;5.346;2022-12-26T05:22:42;14.52;;;3.55;;
25913;SDS011;13718;50.922;5.346;2022-12-26T05:25:29;11.02;;;3.38;;
25913;SDS011;13718;50.922;5.346;2022-12-26T05:28:16;15.25;;;3.75;;
25913;SDS011;13718;50.922;5.346;2022-12-26T05:31:00;12.40;;;3.72;;
25913;SDS011;13718;50.922;5.346;2022-12-26T05:33:27;6.43;;;3.00;;
25913;SDS011;13718;50.922;5.346;2022-12-26T05:36:12;10.15;;;3.17;;
25913;SDS011;13718;50.922;5.346;2022-12-26T05:38:39;10.18;;;3.13;;
25913;SDS011;13718;50.922;5.346;2022-12-26T05:41:04;12.60;;;3.85;;
25913;SDS011;13718;50.922;5.346;2022-12-26T05:43:30;9.07;;;3.50;;
25913;SDS011;13718;50.922;5.346;2022-12-26T05:45:56;9.60;;;3.78;;
25913;SDS011;13718;50.922;5.346;2022-12-26T05:48:22;13.00;;;3.40;;
25913;SDS011;13718;50.922;5.346;2022-12-26T05:50:48;9.88;;;3.13;;
25913;SDS011;13718;50.922;5.346;2022-12-26T05:53:13;12.10;;;3.47;;
25913;SDS011;13718;50.922;5.346;2022-12-26T05:55:39;9.20;;;3.72;;
25913;SDS011;13718;50.922;5.346;2022-12-26T05:58:05;8.90;;;3.60;;
25913;SDS011;13718;50.922;5.346;2022-12-26T06:00:30;9.93;;;3.20;;
25913;SDS011;13718;50.922;5.346;2022-12-26T06:02:59;8.23;;;2.97;;
25913;SDS011;13718;50.922;5.346;2022-12-26T06:05:26;8.80;;;3.50;;
25913;SDS011;13718;50.922;5.346;2022-12-26T06:07:52;6.68;;;3.30;;
25913;SDS011;13718;50.922;5.346;2022-12-26T06:10:18;6.80;;;2.55;;
25913;SDS011;13718;50.922;5.346;2022-12-26T06:12:44;9.77;;;3.08;;
25913;SDS011;13718;50.922;5.346;2022-12-26T06:15:10;11.02;;;3.10;;
25913;SDS011;13718;50.922;5.346;2022-12-26T06:17:36;5.57;;;3.10;;
25913;SDS011;13718;50.922;5.346;2022-12-26T06:20:03;9.05;;;3.10;;
25913;SDS011;13718;50.922;5.346;2022-12-26T06:22:29;7.63;;;2.50;;
25913;SDS011;13718;50.922;5.346;2022-12-26T06:24:55;8.70;;;2.47;;
25913;SDS011;13718;50.922;5.346;2022-12-26T06:27:20;4.22;;;2.20;;
25913;SDS011;13718;50.922;5.346;2022-12-26T06:29:46;6.22;;;2.08;;
25913;SDS011;13718;50.922;5.346;2022-12-26T06:32:12;8.52;;;2.25;;
25913;SDS011;13718;50.922;5.346;2022-12-26T06:34:37;4.78;;;2.08;;
25913;SDS011;13718;50.922;5.346;2022-12-26T06:37:03;3.38;;;1.50;;
25913;SDS011;13718;50.922;5.346;2022-12-26T06:39:28;8.02;;;1.67;;
25913;SDS011;13718;50.922;5.346;2022-12-26T06:41:54;6.38;;;1.70;;
25913;SDS011;13718;50.922;5.346;2022-12-26T06:44:20;4.55;;;1.75;;
25913;SDS011;13718;50.922;5.346;2022-12-26T06:46:45;4.38;;;1.80;;
25913;SDS011;13718;50.922;5.346;2022-12-26T06:49:11;5.78;;;1.73;;
25913;SDS011;13718;50.922;5.346;2022-12-26T06:51:37;3.10;;;1.50;;
25913;SDS011;13718;50.922;5.346;2022-12-26T06:54:02;3.10;;;1.75;;
25913;SDS011;13718;50.922;5.346;2022-12-26T06:56:28;6.82;;;1.95;;
25913;SDS011;13718;50.922;5.346;2022-12-26T06:58:56;5.25;;;2.10;;
25913;SDS011;13718;50.922;5.346;2022-12-26T07:01:23;5.60;;;1.80;;
25913;SDS011;13718;50.922;5.346;2022-12-26T07:03:50;3.95;;;1.52;;
25913;SDS011;13718;50.922;5.346;2022-12-26T07:08:51;8.43;;;2.20;;
25913;SDS011;13718;50.922;5.346;2022-12-26T07:11:20;5.93;;;2.22;;
25913;SDS011;13718;50.922;5.346;2022-12-26T07:13:47;4.90;;;2.40;;
25913;SDS011;13718;50.922;5.346;2022-12-26T07:16:13;5.28;;;2.00;;
25913;SDS011;13718;50.922;5.346;2022-12-26T07:18:38;4.78;;;2.40;;
25913;SDS011;13718;50.922;5.346;2022-12-26T07:21:05;5.80;;;2.10;;
25913;SDS011;13718;50.922;5.346;2022-12-26T07:23:32;4.00;;;2.03;;
25913;SDS011;13718;50.922;5.346;2022-12-26T07:25:58;8.43;;;2.38;;
25913;SDS011;13718;50.922;5.346;2022-12-26T07:28:24;4.05;;;2.47;;
25913;SDS011;13718;50.922;5.346;2022-12-26T07:30:50;4.18;;;2.20;;
25913;SDS011;13718;50.922;5.346;2022-12-26T07:33:16;5.03;;;2.00;;
25913;SDS011;13718;50.922;5.346;2022-12-26T07:35:42;8.57;;;2.25;;
25913;SDS011;13718;50.922;5.346;2022-12-26T07:38:08;5.80;;;1.70;;
25913;SDS011;13718;50.922;5.346;2022-12-26T07:40:34;4.53;;;1.90;;
25913;SDS011;13718;50.922;5.346;2022-12-26T07:43:00;6.82;;;2.03;;
25913;SDS011;13718;50.922;5.346;2022-12-26T07:45:26;4.45;;;1.73;;
25913;SDS011;13718;50.922;5.346;2022-12-26T07:47:52;5.57;;;1.60;;
25913;SDS011;13718;50.922;5.346;2022-12-26T07:50:18;4.50;;;1.65;;
25913;SDS011;13718;50.922;5.346;2022-12-26T07:52:44;10.13;;;1.83;;
25913;SDS011;13718;50.922;5.346;2022-12-26T07:55:09;5.57;;;1.65;;
25913;SDS011;13718;50.922;5.346;2022-12-26T07:57:35;5.35;;;1.77;;
25913;SDS011;13718;50.922;5.346;2022-12-26T08:00:01;3.75;;;1.50;;
25913;SDS011;13718;50.922;5.346;2022-12-26T08:02:28;2.83;;;1.35;;
25913;SDS011;13718;50.922;5.346;2022-12-26T08:04:54;4.20;;;1.88;;
25913;SDS011;13718;50.922;5.346;2022-12-26T08:07:19;11.00;;;1.90;;
25913;SDS011;13718;50.922;5.346;2022-12-26T08:09:46;3.78;;;1.50;;
25913;SDS011;13718;50.922;5.346;2022-12-26T08:12:11;5.22;;;1.77;;
25913;SDS011;13718;50.922;5.346;2022-12-26T08:14:37;5.88;;;1.40;;
25913;SDS011;13718;50.922;5.346;2022-12-26T08:17:03;2.83;;;1.45;;
25913;SDS011;13718;50.922;5.346;2022-12-26T08:19:29;7.63;;;1.70;;
25913;SDS011;13718;50.922;5.346;2022-12-26T08:21:55;5.45;;;1.52;;
25913;SDS011;13718;50.922;5.346;2022-12-26T08:24:20;6.07;;;1.83;;
25913;SDS011;13718;50.922;5.346;2022-12-26T08:26:46;4.78;;;1.45;;
25913;SDS011;13718;50.922;5.346;2022-12-26T08:29:11;4.43;;;1.70;;
25913;SDS011;13718;50.922;5.346;2022-12-26T08:31:37;4.68;;;1.60;;
25913;SDS011;13718;50.922;5.346;2022-12-26T08:34:03;6.68;;;1.60;;
25913;SDS011;13718;50.922;5.346;2022-12-26T08:36:29;8.68;;;1.90;;
25913;SDS011;13718;50.922;5.346;2022-12-26T08:38:54;5.65;;;1.60;;
25913;SDS011;13718;50.922;5.346;2022-12-26T08:41:22;5.68;;;1.60;;
25913;SDS011;13718;50.922;5.346;2022-12-26T08:43:51;6.60;;;2.00;;
25913;SDS011;13718;50.922;5.346;2022-12-26T08:46:18;4.45;;;1.45;;
25913;SDS011;13718;50.922;5.346;2022-12-26T08:48:45;4.60;;;1.73;;
25913;SDS011;13718;50.922;5.346;2022-12-26T08:51:12;6.82;;;1.60;;
25913;SDS011;13718;50.922;5.346;2022-12-26T08:53:40;8.63;;;1.50;;
25913;SDS011;13718;50.922;5.346;2022-12-26T08:56:07;7.50;;;1.63;;
25913;SDS011;13718;50.922;5.346;2022-12-26T08:58:35;4.90;;;1.27;;
25913;SDS011;13718;50.922;5.346;2022-12-26T09:01:10;9.35;;;2.53;;
25913;SDS011;13718;50.922;5.346;2022-12-26T09:03:38;7.15;;;2.30;;
25913;SDS011;13718;50.922;5.346;2022-12-26T09:06:04;9.98;;;1.73;;
25913;SDS011;13718;50.922;5.346;2022-12-26T09:08:30;8.32;;;1.65;;
25913;SDS011;13718;50.922;5.346;2022-12-26T09:11:05;6.45;;;1.52;;
25913;SDS011;13718;50.922;5.346;2022-12-26T09:13:37;7.07;;;1.58;;
25913;SDS011;13718;50.922;5.346;2022-12-26T09:18:38;4.10;;;1.63;;
25913;SDS011;13718;50.922;5.346;2022-12-26T09:21:04;6.68;;;1.73;;
25913;SDS011;13718;50.922;5.346;2022-12-26T09:23:31;3.38;;;1.52;;
25913;SDS011;13718;50.922;5.346;2022-12-26T09:26:06;8.98;;;1.83;;
25913;SDS011;13718;50.922;5.346;2022-12-26T09:28:39;7.25;;;1.73;;
25913;SDS011;13718;50.922;5.346;2022-12-26T09:31:06;10.23;;;1.60;;
25913;SDS011;13718;50.922;5.346;2022-12-26T09:33:37;4.43;;;1.25;;
25913;SDS011;13718;50.922;5.346;2022-12-26T09:36:06;6.72;;;1.85;;
25913;SDS011;13718;50.922;5.346;2022-12-26T09:38:36;7.70;;;1.48;;
25913;SDS011;13718;50.922;5.346;2022-12-26T09:49:29;5.95;;;1.40;;
25913;SDS011;13718;50.922;5.346;2022-12-26T09:52:03;5.32;;;1.40;;
25913;SDS011;13718;50.922;5.346;2022-12-26T09:54:36;4.60;;;1.45;;
25913;SDS011;13718;50.922;5.346;2022-12-26T09:57:17;4.15;;;1.15;;
25913;SDS011;13718;50.922;5.346;2022-12-26T09:59:48;10.50;;;2.03;;
25913;SDS011;13718;50.922;5.346;2022-12-26T10:02:25;8.50;;;1.58;;
25913;SDS011;13718;50.922;5.346;2022-12-26T10:04:52;8.55;;;2.00;;
25913;SDS011;13718;50.922;5.346;2022-12-26T10:09:53;5.50;;;1.73;;
25913;SDS011;13718;50.922;5.346;2022-12-26T10:28:55;10.95;;;2.10;;
25913;SDS011;13718;50.922;5.346;2022-12-26T10:31:35;9.45;;;1.90;;
25913;SDS011;13718;50.922;5.346;2022-12-26T10:34:15;10.45;;;3.30;;
25913;SDS011;13718;50.922;5.346;2022-12-26T10:39:30;12.23;;;1.95;;
25913;SDS011;13718;50.922;5.346;2022-12-26T10:42:20;12.25;;;2.10;;
25913;SDS011;13718;50.922;5.346;2022-12-26T10:44:50;8.03;;;1.97;;
25913;SDS011;13718;50.922;5.346;2022-12-26T10:49:49;14.35;;;4.72;;
25913;SDS011;13718;50.922;5.346;2022-12-26T10:52:15;9.13;;;2.03;;
25913;SDS011;13718;50.922;5.346;2022-12-26T10:54:44;10.95;;;2.50;;
25913;SDS011;13718;50.922;5.346;2022-12-26T10:57:13;12.55;;;3.33;;
25913;SDS011;13718;50.922;5.346;2022-12-26T11:07:22;9.07;;;2.05;;
25913;SDS011;13718;50.922;5.346;2022-12-26T11:09:50;11.25;;;2.03;;
25913;SDS011;13718;50.922;5.346;2022-12-26T11:15:04;9.43;;;1.52;;
25913;SDS011;13718;50.922;5.346;2022-12-26T11:17:41;8.50;;;2.78;;
25913;SDS011;13718;50.922;5.346;2022-12-26T11:20:10;12.00;;;2.45;;
25913;SDS011;13718;50.922;5.346;2022-12-26T11:22:39;11.73;;;2.38;;
25913;SDS011;13718;50.922;5.346;2022-12-26T11:27:35;9.10;;;2.10;;
25913;SDS011;13718;50.922;5.346;2022-12-26T11:32:47;8.60;;;2.15;;
25913;SDS011;13718;50.922;5.346;2022-12-26T11:35:17;8.57;;;2.28;;
25913;SDS011;13718;50.922;5.346;2022-12-26T11:37:45;6.13;;;2.00;;
25913;SDS011;13718;50.922;5.346;2022-12-26T11:40:16;10.32;;;1.90;;
25913;SDS011;13718;50.922;5.346;2022-12-26T11:42:51;10.37;;;2.10;;
25913;SDS011;13718;50.922;5.346;2022-12-26T11:45:21;6.78;;;1.77;;
25913;SDS011;13718;50.922;5.346;2022-12-26T11:47:49;9.13;;;1.63;;
25913;SDS011;13718;50.922;5.346;2022-12-26T11:50:15;9.70;;;1.80;;
25913;SDS011;13718;50.922;5.346;2022-12-26T12:00:31;6.38;;;2.10;;
25913;SDS011;13718;50.922;5.346;2022-12-26T12:02:58;5.32;;;2.00;;
25913;SDS011;13718;50.922;5.346;2022-12-26T12:23:54;6.43;;;1.55;;
25913;SDS011;13718;50.922;5.346;2022-12-26T12:26:25;7.90;;;1.77;;
25913;SDS011;13718;50.922;5.346;2022-12-26T12:29:11;5.88;;;1.90;;
25913;SDS011;13718;50.922;5.346;2022-12-26T12:31:50;5.78;;;1.45;;
25913;SDS011;13718;50.922;5.346;2022-12-26T12:34:21;6.95;;;1.50;;
25913;SDS011;13718;50.922;5.346;2022-12-26T13:08:13;8.32;;;1.90;;
25913;SDS011;13718;50.922;5.346;2022-12-26T13:10:49;17.30;;;1.90;;
25913;SDS011;13718;50.922;5.346;2022-12-26T13:13:26;11.00;;;1.70;;
25913;SDS011;13718;50.922;5.346;2022-12-26T13:16:13;10.38;;;1.50;;
25913;SDS011;13718;50.922;5.346;2022-12-26T13:18:44;8.25;;;1.80;;
25913;SDS011;13718;50.922;5.346;2022-12-26T13:21:28;6.88;;;1.50;;
25913;SDS011;13718;50.922;5.346;2022-12-26T13:24:00;7.87;;;1.90;;
25913;SDS011;13718;50.922;5.346;2022-12-26T13:26:53;9.63;;;1.85;;
25913;SDS011;13718;50.922;5.346;2022-12-26T13:29:39;7.22;;;1.52;;
25913;SDS011;13718;50.922;5.346;2022-12-26T13:32:14;4.55;;;0.95;;
25913;SDS011;13718;50.922;5.346;2022-12-26T13:34:44;12.35;;;1.42;;
25913;SDS011;13718;50.922;5.346;2022-12-26T13:37:51;4.97;;;0.98;;
25913;SDS011;13718;50.922;5.346;2022-12-26T13:39:59;10.13;;;1.50;;
25913;SDS011;13718;50.922;5.346;2022-12-26T13:42:43;12.52;;;1.50;;
25913;SDS011;13718;50.922;5.346;2022-12-26T13:55:50;4.57;;;1.23;;
25913;SDS011;13718;50.922;5.346;2022-12-26T13:58:28;8.63;;;1.15;;
25913;SDS011;13718;50.922;5.346;2022-12-26T14:01:04;13.75;;;1.30;;
25913;SDS011;13718;50.922;5.346;2022-12-26T14:03:44;9.30;;;1.27;;
25913;SDS011;13718;50.922;5.346;2022-12-26T14:06:36;9.60;;;1.20;;
25913;SDS011;13718;50.922;5.346;2022-12-26T14:11:55;16.92;;;1.92;;
25913;SDS011;13718;50.922;5.346;2022-12-26T14:36:51;3.40;;;0.82;;
25913;SDS011;13718;50.922;5.346;2022-12-26T14:43:00;8.07;;;1.00;;
25913;SDS011;13718;50.922;5.346;2022-12-26T14:48:47;10.10;;;1.40;;
25913;SDS011;13718;50.922;5.346;2022-12-26T14:50:51;8.35;;;1.00;;
25913;SDS011;13718;50.922;5.346;2022-12-26T14:58:22;5.75;;;1.30;;
25913;SDS011;13718;50.922;5.346;2022-12-26T15:30:12;13.00;;;1.73;;
25913;SDS011;13718;50.922;5.346;2022-12-26T15:33:30;8.65;;;2.13;;
25913;SDS011;13718;50.922;5.346;2022-12-26T15:35:49;10.27;;;1.90;;
25913;SDS011;13718;50.922;5.346;2022-12-26T15:41:14;9.65;;;1.88;;
25913;SDS011;13718;50.922;5.346;2022-12-26T15:43:58;10.85;;;2.20;;
25913;SDS011;13718;50.922;5.346;2022-12-26T15:54:59;9.20;;;2.05;;
25913;SDS011;13718;50.922;5.346;2022-12-26T15:57:44;13.43;;;2.35;;
25913;SDS011;13718;50.922;5.346;2022-12-26T16:06:47;11.35;;;2.30;;
25913;SDS011;13718;50.922;5.346;2022-12-26T16:14:31;19.52;;;2.80;;
25913;SDS011;13718;50.922;5.346;2022-12-26T16:19:39;10.73;;;2.70;;
25913;SDS011;13718;50.922;5.346;2022-12-26T16:25:08;14.63;;;2.85;;
25913;SDS011;13718;50.922;5.346;2022-12-26T16:27:36;9.50;;;2.33;;
25913;SDS011;13718;50.922;5.346;2022-12-26T16:30:06;14.50;;;2.50;;
25913;SDS011;13718;50.922;5.346;2022-12-26T16:32:39;16.65;;;2.40;;
25913;SDS011;13718;50.922;5.346;2022-12-26T16:35:12;9.63;;;1.80;;
25913;SDS011;13718;50.922;5.346;2022-12-26T16:37:42;10.05;;;2.45;;
25913;SDS011;13718;50.922;5.346;2022-12-26T16:42:39;18.63;;;3.08;;
25913;SDS011;13718;50.922;5.346;2022-12-26T16:45:13;15.02;;;2.33;;
25913;SDS011;13718;50.922;5.346;2022-12-26T16:47:43;17.52;;;2.63;;
25913;SDS011;13718;50.922;5.346;2022-12-26T16:50:16;10.23;;;2.20;;
25913;SDS011;13718;50.922;5.346;2022-12-26T16:53:08;13.48;;;2.72;;
25913;SDS011;13718;50.922;5.346;2022-12-26T16:55:39;7.55;;;2.25;;
25913;SDS011;13718;50.922;5.346;2022-12-26T17:01:04;16.33;;;2.33;;
25913;SDS011;13718;50.922;5.346;2022-12-26T17:06:27;13.40;;;2.05;;
25913;SDS011;13718;50.922;5.346;2022-12-26T17:09:02;10.57;;;1.77;;
25913;SDS011;13718;50.922;5.346;2022-12-26T17:11:36;5.05;;;1.70;;
25913;SDS011;13718;50.922;5.346;2022-12-26T17:14:14;11.13;;;1.83;;
25913;SDS011;13718;50.922;5.346;2022-12-26T17:16:45;13.38;;;2.00;;
25913;SDS011;13718;50.922;5.346;2022-12-26T17:19:16;11.25;;;1.98;;
25913;SDS011;13718;50.922;5.346;2022-12-26T17:24:33;13.25;;;2.70;;
25913;SDS011;13718;50.922;5.346;2022-12-26T17:27:06;16.77;;;2.80;;
25913;SDS011;13718;50.922;5.346;2022-12-26T17:32:38;12.75;;;2.50;;
25913;SDS011;13718;50.922;5.346;2022-12-26T17:38:05;18.63;;;3.72;;
25913;SDS011;13718;50.922;5.346;2022-12-26T17:40:36;14.80;;;3.03;;
25913;SDS011;13718;50.922;5.346;2022-12-26T17:45:44;24.42;;;3.13;;
25913;SDS011;13718;50.922;5.346;2022-12-26T17:48:10;13.15;;;3.08;;
25913;SDS011;13718;50.922;5.346;2022-12-26T17:50:38;13.18;;;2.95;;
25913;SDS011;13718;50.922;5.346;2022-12-26T17:55:51;13.43;;;2.55;;
25913;SDS011;13718;50.922;5.346;2022-12-26T17:58:19;10.27;;;2.63;;
25913;SDS011;13718;50.922;5.346;2022-12-26T18:00:45;17.17;;;3.20;;
25913;SDS011;13718;50.922;5.346;2022-12-26T18:03:11;9.70;;;2.22;;
25913;SDS011;13718;50.922;5.346;2022-12-26T18:05:37;10.65;;;2.35;;
25913;SDS011;13718;50.922;5.346;2022-12-26T18:08:03;14.38;;;3.70;;
25913;SDS011;13718;50.922;5.346;2022-12-26T18:10:30;15.93;;;2.90;;
25913;SDS011;13718;50.922;5.346;2022-12-26T18:12:58;16.45;;;3.17;;
25913;SDS011;13718;50.922;5.346;2022-12-26T18:15:24;10.68;;;2.75;;
25913;SDS011;13718;50.922;5.346;2022-12-26T18:17:51;11.88;;;2.35;;
25913;SDS011;13718;50.922;5.346;2022-12-26T18:20:18;9.85;;;2.35;;
25913;SDS011;13718;50.922;5.346;2022-12-26T18:22:47;11.98;;;3.08;;
25913;SDS011;13718;50.922;5.346;2022-12-26T18:25:16;9.65;;;3.70;;
25913;SDS011;13718;50.922;5.346;2022-12-26T18:27:44;14.82;;;4.07;;
25913;SDS011;13718;50.922;5.346;2022-12-26T18:30:14;16.67;;;3.40;;
25913;SDS011;13718;50.922;5.346;2022-12-26T18:32:43;15.40;;;3.08;;
25913;SDS011;13718;50.922;5.346;2022-12-26T18:35:08;15.00;;;2.85;;
25913;SDS011;13718;50.922;5.346;2022-12-26T18:37:34;17.10;;;2.92;;
25913;SDS011;13718;50.922;5.346;2022-12-26T18:40:00;14.13;;;2.70;;
25913;SDS011;13718;50.922;5.346;2022-12-26T18:42:26;18.38;;;2.60;;
25913;SDS011;13718;50.922;5.346;2022-12-26T18:44:52;8.90;;;2.35;;
25913;SDS011;13718;50.922;5.346;2022-12-26T18:47:19;10.88;;;2.45;;
25913;SDS011;13718;50.922;5.346;2022-12-26T18:49:46;11.45;;;2.47;;
25913;SDS011;13718;50.922;5.346;2022-12-26T18:52:12;14.27;;;2.58;;
25913;SDS011;13718;50.922;5.346;2022-12-26T18:54:38;11.20;;;2.55;;
25913;SDS011;13718;50.922;5.346;2022-12-26T18:57:05;11.95;;;2.83;;
25913;SDS011;13718;50.922;5.346;2022-12-26T18:59:31;13.35;;;2.20;;
25913;SDS011;13718;50.922;5.346;2022-12-26T19:01:57;11.73;;;2.30;;
25913;SDS011;13718;50.922;5.346;2022-12-26T19:04:23;12.57;;;2.60;;
25913;SDS011;13718;50.922;5.346;2022-12-26T19:06:49;15.70;;;2.60;;
25913;SDS011;13718;50.922;5.346;2022-12-26T19:09:14;13.32;;;2.40;;
25913;SDS011;13718;50.922;5.346;2022-12-26T19:11:40;7.10;;;2.53;;
25913;SDS011;13718;50.922;5.346;2022-12-26T19:14:07;18.25;;;3.25;;
25913;SDS011;13718;50.922;5.346;2022-12-26T19:16:39;12.52;;;2.30;;
25913;SDS011;13718;50.922;5.346;2022-12-26T19:19:05;13.40;;;2.42;;
25913;SDS011;13718;50.922;5.346;2022-12-26T19:21:30;18.80;;;3.08;;
25913;SDS011;13718;50.922;5.346;2022-12-26T19:23:56;14.15;;;2.42;;
25913;SDS011;13718;50.922;5.346;2022-12-26T19:26:21;14.38;;;2.40;;
25913;SDS011;13718;50.922;5.346;2022-12-26T19:28:50;11.35;;;2.72;;
25913;SDS011;13718;50.922;5.346;2022-12-26T19:31:17;13.07;;;2.40;;
25913;SDS011;13718;50.922;5.346;2022-12-26T19:33:43;15.73;;;3.25;;
25913;SDS011;13718;50.922;5.346;2022-12-26T19:36:08;14.65;;;2.67;;
25913;SDS011;13718;50.922;5.346;2022-12-26T19:38:34;14.07;;;2.90;;
25913;SDS011;13718;50.922;5.346;2022-12-26T19:41:04;13.90;;;2.60;;
25913;SDS011;13718;50.922;5.346;2022-12-26T19:43:35;15.07;;;3.00;;
25913;SDS011;13718;50.922;5.346;2022-12-26T19:46:02;14.95;;;2.70;;